Kirbyville, MO (65679)

2:16 PM CDT on September 22, 2014 (GMT -0500)
Branson | Change Station
CLOSE
Current Station
Airport
Location: Branson,
Elevation: 1302 ft
Nearby Weather Stations

Elev 1302 ft 36.53 °N, 93.20 °W | Updated 31 minutes ago

Clear
Clear
73 °F
Feels Like 73 °F
N
6
Wind Variable Wind from North

Today
High -- | Low -- °F
--% Chance of Precip.
Yesterday
High -- | Low -- °F
Precip. -- in
7:00 AM 7:09 PM
Waning Crescent, 2% visible
Pressure 30.28 in
Visibility 10.0 miles
Clouds Scattered Clouds 25000 ft
Dew Point 50 °F
Humidity 44%
Rainfall 0.00 in
Snow Depth Not available.
UV 7 out of 12
Pollen 5.70 out of 12
Air Quality Not available.
Flu Activity Not available.
METAR KBBG 221845Z 01005KT 10SM SCT250 23/10 A3028

More Conditions Fewer Conditions

Pressure 30.28 in
Visibility 10.0 miles
Clouds Scattered Clouds 25000 ft
Dew Point 50 °F
Humidity 44%
Rainfall 0.00 in
Snow Depth Not available.
UV 7 out of 12
Pollen 5.70 out of 12
Air Quality Not available.
Flu Activity Not available.
METAR KBBG 221845Z 01005KT 10SM SCT250 23/10 A3028

More Conditions Fewer Conditions

10-Day Weather Forecast

Almanac

Astronomy

Sep. 22, 2014 Rise Set
Actual Time 7:00 AM CDT 7:09 PM CDT
Civil Twilight 6:34 AM CDT 7:35 PM CDT
Nautical Twilight 6:04 AM CDT 8:05 PM CDT
Astronomical Twilight 5:33 AM CDT 8:35 PM CDT
Moon 5:31 AM CDT 6:16 PM CDT
Length of Visible Light 13h 00m
Length of Day
12h 08m
Tomorrow will be 2m 18s shorter.
Waning Crescent, 2% of the Moon is Illuminated
Today
Waning Crescent
Sep 24
New
Oct 1
First Quarter
Oct 8
Full
Oct 15
Last Quarter

Today's Extremes

State Highs State Lows

Community

WunderPhotos

Upload Photos

1,755,514 photos uploaded!

WunderBlogs® & News

Nearby

Snow Depth

Station Depth Elevation
No new snow has been reported.

Earthquake Activity

City Distance Mag. Time & Date
No recent earthquake activity has been reported nearby.
Minimum magnitude displayed is 2.5.

Coastal Water Temperatures

Place Temperature
No Stations Reporting

Nearby Weather Stations